createdAt,value
2022-11-05T00:01:38.513Z,6.92
2022-11-05T00:04:05.175Z,6.91
2022-11-05T00:06:31.612Z,6.93
2022-11-05T00:08:58.006Z,6.96
2022-11-05T00:11:24.381Z,7.01
2022-11-05T00:13:50.832Z,6.98
2022-11-05T00:16:17.210Z,6.97
2022-11-05T00:18:43.591Z,6.92
2022-11-05T00:21:10.007Z,6.93
2022-11-05T00:23:36.381Z,6.96
2022-11-05T00:26:04.482Z,6.98
2022-11-05T00:28:31.183Z,6.99
2022-11-05T00:31:04.599Z,7.01
2022-11-05T00:33:31.234Z,7.03
2022-11-05T00:35:57.662Z,7.09
2022-11-05T00:38:24.266Z,7.04
2022-11-05T00:40:50.657Z,7.06
2022-11-05T00:43:17.039Z,7.07
2022-11-05T00:45:43.446Z,7.06
2022-11-05T00:48:09.879Z,7.04
2022-11-05T00:50:36.253Z,7.03
2022-11-05T00:53:02.770Z,7.06
2022-11-05T00:55:39.000Z,7.04
2022-11-05T00:58:12.700Z,7.00
2022-11-05T01:00:40.690Z,6.97
2022-11-05T01:03:13.327Z,6.91
2022-11-05T01:05:44.466Z,6.85
2022-11-05T01:08:11.627Z,6.87
2022-11-05T01:10:50.228Z,6.91
2022-11-05T01:13:18.562Z,6.90
2022-11-05T01:15:45.232Z,6.92
2022-11-05T01:18:11.727Z,6.93
2022-11-05T01:20:38.293Z,6.94
2022-11-05T01:23:08.927Z,6.87
2022-11-05T01:25:39.487Z,6.84
2022-11-05T01:28:05.901Z,6.83
2022-11-05T01:30:32.293Z,6.77
2022-11-05T01:32:58.690Z,6.69
2022-11-05T01:35:26.459Z,6.66
2022-11-05T01:37:52.857Z,6.62
2022-11-05T01:40:22.014Z,6.57
2022-11-05T01:42:48.418Z,6.58
2022-11-05T01:45:22.202Z,6.54
2022-11-05T01:48:01.851Z,6.51
2022-11-05T01:50:45.114Z,6.49
2022-11-05T01:53:28.412Z,6.54
2022-11-05T01:56:03.366Z,6.58
2022-11-05T01:58:33.921Z,6.61
2022-11-05T02:01:00.328Z,6.63
2022-11-05T02:03:26.717Z,6.61
2022-11-05T02:05:53.095Z,6.56
2022-11-05T02:08:28.590Z,6.55
2022-11-05T02:10:54.995Z,6.52
2022-11-05T02:13:21.379Z,6.48
2022-11-05T02:15:51.661Z,6.47
2022-11-05T02:18:29.024Z,6.49
2022-11-05T02:21:27.289Z,6.47
2022-11-05T02:24:00.352Z,6.47
2022-11-05T02:26:49.118Z,6.43
2022-11-05T02:29:47.343Z,6.43
2022-11-05T02:32:41.034Z,6.40
2022-11-05T02:35:31.357Z,6.35
2022-11-05T02:38:13.125Z,6.34
2022-11-05T02:40:52.617Z,6.35
2022-11-05T02:43:34.765Z,6.34
2022-11-05T02:46:12.254Z,6.30
2022-11-05T02:48:38.565Z,6.32
2022-11-05T02:51:10.106Z,6.29
2022-11-05T02:53:49.784Z,6.28
2022-11-05T02:56:24.257Z,6.24
2022-11-05T02:58:50.658Z,6.18
2022-11-05T03:01:17.183Z,6.11
2022-11-05T03:03:48.552Z,6.08
2022-11-05T03:06:18.413Z,6.07
2022-11-05T03:09:17.182Z,6.07
2022-11-05T03:12:06.055Z,6.08
2022-11-05T03:14:36.499Z,6.03
2022-11-05T03:17:17.880Z,5.95
2022-11-05T03:20:10.759Z,5.95
2022-11-05T03:22:40.724Z,5.97
2022-11-05T03:25:11.013Z,5.99
2022-11-05T03:27:38.631Z,6.01
2022-11-05T03:30:09.287Z,6.03
2022-11-05T03:32:37.542Z,6.06
2022-11-05T03:35:23.067Z,6.04
2022-11-05T03:37:50.062Z,6.04
2022-11-05T03:40:16.822Z,6.03
2022-11-05T03:42:45.006Z,5.96
2022-11-05T03:45:15.756Z,5.99
2022-11-05T03:47:42.899Z,6.01
2022-11-05T03:50:41.233Z,6.04
2022-11-05T03:53:16.147Z,6.07
2022-11-05T03:56:05.006Z,6.08
2022-11-05T03:58:31.379Z,6.08
2022-11-05T04:00:59.857Z,6.01
2022-11-05T04:03:26.235Z,5.98
2022-11-05T04:05:54.015Z,5.95
2022-11-05T04:08:20.411Z,5.96
2022-11-05T04:10:46.784Z,5.98
2022-11-05T04:13:13.392Z,5.96
2022-11-05T04:15:39.954Z,5.93
2022-11-05T04:18:06.332Z,5.93
2022-11-05T04:20:32.692Z,5.89
2022-11-05T04:23:03.605Z,5.90
2022-11-05T04:25:30.004Z,5.91
2022-11-05T04:27:58.850Z,5.92
2022-11-05T04:30:25.306Z,5.89
2022-11-05T04:33:12.363Z,5.86
2022-11-05T04:35:40.767Z,5.87
2022-11-05T04:38:14.362Z,5.88
2022-11-05T04:40:40.982Z,5.86
2022-11-05T04:43:13.645Z,5.87
2022-11-05T04:45:41.440Z,5.85
2022-11-05T04:48:07.820Z,5.73
2022-11-05T04:50:34.230Z,5.69
2022-11-05T04:53:00.620Z,5.69
2022-11-05T04:55:27.138Z,5.73
2022-11-05T04:57:53.723Z,5.76
2022-11-05T05:00:20.970Z,5.76
2022-11-05T05:02:47.472Z,5.78
2022-11-05T05:05:13.911Z,5.79
2022-11-05T05:07:40.836Z,5.78
2022-11-05T05:10:07.687Z,5.76
2022-11-05T05:12:34.414Z,5.75
2022-11-05T05:15:00.814Z,5.73
2022-11-05T05:17:27.239Z,5.75
2022-11-05T05:19:53.662Z,5.73
2022-11-05T05:22:20.108Z,5.76
2022-11-05T05:24:52.441Z,5.79
2022-11-05T05:27:19.264Z,5.78
2022-11-05T05:29:45.638Z,5.76
2022-11-05T05:32:12.013Z,5.77
2022-11-05T05:34:38.386Z,5.74
2022-11-05T05:37:04.786Z,5.78
2022-11-05T05:39:31.169Z,5.75
2022-11-05T05:41:57.623Z,5.79
2022-11-05T05:44:24.082Z,5.79
2022-11-05T05:46:50.450Z,5.76
2022-11-05T05:49:16.838Z,5.76
2022-11-05T05:51:43.204Z,5.73
2022-11-05T05:54:10.649Z,5.68
2022-11-05T05:56:37.017Z,5.66
2022-11-05T05:59:05.029Z,5.66
2022-11-05T06:01:31.474Z,5.61
2022-11-05T06:03:57.913Z,5.57
2022-11-05T06:06:24.306Z,5.60
2022-11-05T06:08:50.678Z,5.59
2022-11-05T06:11:17.058Z,5.54
2022-11-05T06:13:43.470Z,5.53
2022-11-05T06:16:10.005Z,5.51
2022-11-05T06:18:36.710Z,5.53
2022-11-05T06:21:07.328Z,5.53
2022-11-05T06:23:34.335Z,5.53
2022-11-05T06:26:05.131Z,5.48
2022-11-05T06:28:31.751Z,5.45
2022-11-05T06:30:58.144Z,5.41
2022-11-05T06:33:24.519Z,5.39
2022-11-05T06:35:50.915Z,5.40
2022-11-05T06:38:17.302Z,5.43
2022-11-05T06:40:43.699Z,5.41
2022-11-05T06:43:10.482Z,5.41
2022-11-05T06:45:37.150Z,5.41
2022-11-05T06:48:03.596Z,5.36
2022-11-05T06:50:31.158Z,5.37
2022-11-05T06:53:01.224Z,5.33
2022-11-05T06:55:28.350Z,5.32
2022-11-05T06:57:55.156Z,5.33
2022-11-05T07:00:21.706Z,5.33
2022-11-05T07:02:48.187Z,5.35
2022-11-05T07:05:14.780Z,5.42
2022-11-05T07:07:41.522Z,5.44
2022-11-05T07:10:09.012Z,5.45
2022-11-05T07:12:35.416Z,5.50
2022-11-05T07:15:01.800Z,5.53
2022-11-05T07:17:28.229Z,5.57
2022-11-05T07:19:54.605Z,5.61
2022-11-05T07:22:21.009Z,5.63
2022-11-05T07:24:47.392Z,5.68
2022-11-05T07:27:14.084Z,5.74
2022-11-05T07:29:40.481Z,5.79
2022-11-05T07:32:06.887Z,5.80
2022-11-05T07:34:33.257Z,5.86
2022-11-05T07:36:59.652Z,5.93
2022-11-05T07:39:26.035Z,5.94
2022-11-05T07:41:52.745Z,5.92
2022-11-05T07:44:19.117Z,5.92
2022-11-05T07:46:47.256Z,5.97
2022-11-05T07:49:13.728Z,5.99
2022-11-05T07:51:40.136Z,5.98
2022-11-05T07:54:06.949Z,5.99
2022-11-05T07:56:33.345Z,6.02
2022-11-05T07:58:59.850Z,6.02
2022-11-05T08:01:26.502Z,6.05
2022-11-05T08:03:53.076Z,6.04
2022-11-05T08:06:19.461Z,6.10
2022-11-05T08:08:45.868Z,6.14
2022-11-05T08:11:12.302Z,6.21
2022-11-05T08:13:38.682Z,6.29
2022-11-05T08:16:05.955Z,6.38
2022-11-05T08:18:32.407Z,6.50
2022-11-05T08:20:59.543Z,6.56
2022-11-05T08:23:26.549Z,6.65
2022-11-05T08:25:53.006Z,6.71
2022-11-05T08:28:19.398Z,6.77
2022-11-05T08:30:52.345Z,6.84
2022-11-05T08:33:19.010Z,6.87
2022-11-05T08:35:45.679Z,6.93
2022-11-05T08:38:15.989Z,6.99
2022-11-05T08:40:43.234Z,7.00
2022-11-05T08:43:10.967Z,7.05
2022-11-05T08:45:38.471Z,7.12
2022-11-05T08:48:10.956Z,7.16
2022-11-05T08:50:37.801Z,7.25
2022-11-05T08:53:04.742Z,7.26
2022-11-05T08:55:37.695Z,7.29
2022-11-05T08:58:05.733Z,7.33
2022-11-05T09:00:34.001Z,7.41
2022-11-05T09:03:02.500Z,7.45
2022-11-05T09:05:30.121Z,7.51
2022-11-05T09:08:01.019Z,7.56
2022-11-05T09:10:28.120Z,7.63
2022-11-05T09:12:55.115Z,7.69
2022-11-05T09:15:21.511Z,7.73
2022-11-05T09:17:47.906Z,7.78
2022-11-05T09:20:14.384Z,7.87
2022-11-05T09:22:43.443Z,7.89
2022-11-05T09:25:10.112Z,7.95
2022-11-05T09:27:36.486Z,8.04
2022-11-05T09:30:03.170Z,8.15
2022-11-05T09:32:31.204Z,8.19
2022-11-05T09:34:57.615Z,8.24
2022-11-05T09:37:23.991Z,8.29
2022-11-05T09:39:50.400Z,8.36
2022-11-05T09:42:17.054Z,8.35
2022-11-05T09:44:47.746Z,8.38
2022-11-05T09:47:17.244Z,8.46
2022-11-05T09:49:51.908Z,8.49
2022-11-05T09:52:36.495Z,8.61
2022-11-05T09:55:04.055Z,8.69
2022-11-05T09:58:00.330Z,8.75
2022-11-05T10:00:26.856Z,8.78
2022-11-05T10:03:03.334Z,8.84
2022-11-05T10:05:29.783Z,8.86
2022-11-05T10:08:05.044Z,8.90
2022-11-05T10:10:41.067Z,8.86
2022-11-05T10:13:17.131Z,9.00
2022-11-05T10:15:51.885Z,9.06
2022-11-05T10:18:25.867Z,9.10
2022-11-05T10:20:52.517Z,9.17
2022-11-05T10:23:19.707Z,9.28
2022-11-05T10:25:55.086Z,9.42
2022-11-05T10:28:24.913Z,9.53
2022-11-05T10:30:52.902Z,9.65
2022-11-05T10:33:24.859Z,9.71
2022-11-05T10:35:52.265Z,9.73
2022-11-05T10:38:18.648Z,9.66
2022-11-05T10:41:00.103Z,9.53
2022-11-05T10:43:45.551Z,9.41
2022-11-05T10:46:37.533Z,9.45
2022-11-05T10:49:47.413Z,9.51
2022-11-05T10:52:31.395Z,9.61
2022-11-05T10:55:00.781Z,9.66
2022-11-05T10:57:29.882Z,9.72
2022-11-05T11:00:14.157Z,9.80
2022-11-05T11:02:41.734Z,9.88
2022-11-05T11:05:08.827Z,9.97
2022-11-05T11:07:35.223Z,10.06
2022-11-05T11:10:01.662Z,10.15
2022-11-05T11:12:35.627Z,10.21
2022-11-05T11:15:13.839Z,10.21
2022-11-05T11:17:40.079Z,10.14
2022-11-05T11:20:20.157Z,10.04
2022-11-05T11:23:18.852Z,9.95
2022-11-05T11:25:52.815Z,9.93
2022-11-05T11:28:26.367Z,10.03
2022-11-05T11:31:05.050Z,10.10
2022-11-05T11:33:31.482Z,10.19
2022-11-05T11:35:57.896Z,10.23
2022-11-05T11:38:24.314Z,10.31
2022-11-05T11:40:50.729Z,10.40
2022-11-05T11:43:29.230Z,10.49
2022-11-05T11:45:59.362Z,10.57
2022-11-05T11:48:29.368Z,10.58
2022-11-05T11:50:56.391Z,10.58
2022-11-05T11:53:40.960Z,10.53
2022-11-05T11:56:19.975Z,10.53
2022-11-05T11:58:54.074Z,10.51
2022-11-05T12:01:39.221Z,10.55
2022-11-05T12:04:40.910Z,10.54
2022-11-05T12:07:32.825Z,10.48
2022-11-05T12:09:59.077Z,10.45
2022-11-05T12:12:35.366Z,10.56
2022-11-05T12:15:35.858Z,10.77
2022-11-05T12:18:06.278Z,11.00
2022-11-05T12:20:58.029Z,11.15
2022-11-05T12:23:28.351Z,11.28
2022-11-05T12:26:22.267Z,11.45
2022-11-05T12:29:18.545Z,11.59
2022-11-05T12:31:45.514Z,11.75
2022-11-05T12:34:53.350Z,11.85
2022-11-05T12:37:30.396Z,11.88
2022-11-05T12:40:02.968Z,12.71
2022-11-05T12:42:56.999Z,14.67
2022-11-05T12:45:39.274Z,16.17
2022-11-05T12:48:30.288Z,17.58
2022-11-05T12:51:19.379Z,18.99
2022-11-05T12:53:48.811Z,17.46
2022-11-05T12:56:35.747Z,15.61
2022-11-05T12:59:17.068Z,14.25
2022-11-05T13:01:46.659Z,13.45
2022-11-05T13:04:28.301Z,13.14
2022-11-05T13:06:55.081Z,12.98
2022-11-05T13:09:53.238Z,12.84
2022-11-05T13:12:21.478Z,12.73
2022-11-05T13:15:06.632Z,12.65
2022-11-05T13:17:50.960Z,12.48
2022-11-05T13:20:22.074Z,12.40
2022-11-05T13:22:51.769Z,12.44
2022-11-05T13:25:22.137Z,12.48
2022-11-05T13:27:57.743Z,12.37
2022-11-05T13:30:31.886Z,12.30
2022-11-05T13:33:02.273Z,12.25
2022-11-05T13:35:36.139Z,12.25
2022-11-05T13:38:05.305Z,12.17
2022-11-05T13:40:57.406Z,12.21
2022-11-05T13:43:44.533Z,12.15
2022-11-05T13:46:38.467Z,12.09
2022-11-05T13:49:20.632Z,12.03
2022-11-05T13:52:18.449Z,12.04
2022-11-05T13:54:49.904Z,12.03
2022-11-05T13:57:38.040Z,12.06
2022-11-05T14:00:23.847Z,12.19
2022-11-05T14:03:02.049Z,12.38
2022-11-05T14:05:35.589Z,12.10
2022-11-05T14:08:24.018Z,11.98
2022-11-05T14:11:04.966Z,11.97
2022-11-05T14:13:39.722Z,12.12
2022-11-05T14:16:10.557Z,12.32
2022-11-05T14:18:45.021Z,12.25
2022-11-05T14:21:47.470Z,12.13
2022-11-05T14:24:22.617Z,11.91
2022-11-05T14:27:01.125Z,12.10
2022-11-05T14:29:43.719Z,11.86
2022-11-05T14:32:19.277Z,11.81
2022-11-05T14:34:54.834Z,11.75
2022-11-05T14:37:22.052Z,11.60
2022-11-05T14:39:48.437Z,11.48
2022-11-05T14:42:29.460Z,11.46
2022-11-05T14:45:19.366Z,11.32
2022-11-05T14:47:54.154Z,11.23
2022-11-05T14:50:40.093Z,11.17
2022-11-05T14:53:22.631Z,11.09
2022-11-05T14:56:21.197Z,11.01
2022-11-05T14:58:47.903Z,10.89
2022-11-05T15:01:14.271Z,10.85
2022-11-05T15:03:46.049Z,10.80
2022-11-05T15:06:19.845Z,10.78
2022-11-05T15:08:49.098Z,10.76
2022-11-05T15:11:27.560Z,10.69
2022-11-05T15:13:53.819Z,10.64
2022-11-05T15:16:26.071Z,10.59
2022-11-05T15:18:53.382Z,10.57
2022-11-05T15:21:19.917Z,10.45
2022-11-05T15:23:47.733Z,10.39
2022-11-05T15:26:46.566Z,10.31
2022-11-05T15:29:23.947Z,10.28
2022-11-05T15:31:50.429Z,10.21
2022-11-05T15:34:25.027Z,10.19
2022-11-05T15:37:15.787Z,10.12
2022-11-05T15:39:43.429Z,10.05
2022-11-05T15:42:25.786Z,10.04
2022-11-05T15:44:56.575Z,10.05
2022-11-05T15:47:27.457Z,10.04
2022-11-05T15:49:58.303Z,9.97
2022-11-05T15:52:32.950Z,9.93
2022-11-05T15:57:51.255Z,9.87
2022-11-05T16:00:28.958Z,9.86
2022-11-05T16:03:12.384Z,9.83
2022-11-05T16:05:42.211Z,9.80
2022-11-05T16:08:15.311Z,9.78
2022-11-05T16:10:47.050Z,9.78
2022-11-05T16:13:35.346Z,9.77
2022-11-05T16:16:23.136Z,9.78
2022-11-05T16:18:49.936Z,9.74
2022-11-05T16:21:18.051Z,9.71
2022-11-05T16:23:57.776Z,9.73
2022-11-05T16:29:27.582Z,9.71
2022-11-05T16:31:54.531Z,9.66
2022-11-05T16:34:27.066Z,9.73
2022-11-05T16:36:57.661Z,9.66
2022-11-05T16:39:24.336Z,9.67
2022-11-05T16:41:50.962Z,9.65
2022-11-05T16:44:17.500Z,9.63
2022-11-05T16:46:47.056Z,9.62
2022-11-05T16:49:13.602Z,9.60
2022-11-05T16:51:42.337Z,9.59
2022-11-05T16:54:08.831Z,9.57
2022-11-05T16:56:35.556Z,9.59
2022-11-05T16:59:02.141Z,9.55
2022-11-05T17:01:28.929Z,9.56
2022-11-05T17:03:55.786Z,9.54
2022-11-05T17:06:22.437Z,9.56
2022-11-05T17:08:49.202Z,9.56
2022-11-05T17:11:20.065Z,9.51
2022-11-05T17:13:47.121Z,9.51
2022-11-05T17:16:16.281Z,9.47
2022-11-05T17:18:43.073Z,9.46
2022-11-05T17:21:09.869Z,9.48
2022-11-05T17:23:37.151Z,9.41
2022-11-05T17:26:10.844Z,9.36
2022-11-05T17:28:37.707Z,9.32
2022-11-05T17:31:05.442Z,9.32
2022-11-05T17:33:32.258Z,9.29
2022-11-05T17:35:58.880Z,9.25
2022-11-05T17:38:26.226Z,9.24
2022-11-05T17:40:52.844Z,9.21
2022-11-05T17:43:19.873Z,9.15
2022-11-05T17:45:48.447Z,9.14
2022-11-05T17:48:15.286Z,9.12
2022-11-05T17:50:42.968Z,9.10
2022-11-05T17:53:10.255Z,9.13
2022-11-05T17:55:37.061Z,9.11
2022-11-05T17:58:04.899Z,9.14
2022-11-05T18:00:32.199Z,9.16
2022-11-05T18:02:58.962Z,9.12
2022-11-05T18:05:25.552Z,9.12
2022-11-05T18:07:52.232Z,9.12
2022-11-05T18:10:18.673Z,9.14
2022-11-05T18:12:45.233Z,9.14
2022-11-05T18:15:12.209Z,9.12
2022-11-05T18:17:38.683Z,9.15
2022-11-05T18:20:05.770Z,9.19
2022-11-05T18:22:32.193Z,9.18
2022-11-05T18:24:58.669Z,9.16
2022-11-05T18:27:25.066Z,9.13
2022-11-05T18:29:51.466Z,9.17
2022-11-05T18:32:17.930Z,9.19
2022-11-05T18:34:44.335Z,9.14
2022-11-05T18:37:10.761Z,9.30
2022-11-05T18:39:37.205Z,9.27
2022-11-05T18:42:06.264Z,9.23
2022-11-05T18:44:37.943Z,9.17
2022-11-05T18:47:05.869Z,9.18
2022-11-05T18:49:32.364Z,9.14
2022-11-05T18:51:59.998Z,9.11
2022-11-05T18:54:26.590Z,9.09
2022-11-05T18:56:53.031Z,9.07
2022-11-05T18:59:36.855Z,9.06
2022-11-05T19:02:04.738Z,9.03
2022-11-05T19:04:31.373Z,9.04
2022-11-05T19:07:01.716Z,8.97
2022-11-05T19:09:35.723Z,8.97
2022-11-05T19:12:02.378Z,8.94
2022-11-05T19:14:30.407Z,8.94
2022-11-05T19:16:59.733Z,8.97
2022-11-05T19:19:26.235Z,8.95
2022-11-05T19:21:53.700Z,9.02
2022-11-05T19:24:20.155Z,9.03
2022-11-05T19:26:47.671Z,9.03
2022-11-05T19:29:15.267Z,9.01
2022-11-05T19:31:41.918Z,8.98
2022-11-05T19:34:09.509Z,8.96
2022-11-05T19:36:35.961Z,9.00
2022-11-05T19:39:05.879Z,8.95
2022-11-05T19:41:32.404Z,9.00
2022-11-05T19:43:58.826Z,8.92
2022-11-05T19:46:25.369Z,8.96
2022-11-05T19:48:51.842Z,8.92
2022-11-05T19:51:20.293Z,8.99
2022-11-05T19:53:46.698Z,9.01
2022-11-05T19:56:16.980Z,8.97
2022-11-05T19:58:43.784Z,8.95
2022-11-05T20:01:11.283Z,8.91
2022-11-05T20:03:37.926Z,8.89
2022-11-05T20:06:09.734Z,8.94
2022-11-05T20:08:47.845Z,8.94
2022-11-05T20:11:22.933Z,8.94
2022-11-05T20:13:49.370Z,8.93
2022-11-05T20:16:19.785Z,8.91
2022-11-05T20:18:47.601Z,8.86
2022-11-05T20:21:14.084Z,8.87
2022-11-05T20:23:40.491Z,8.91
2022-11-05T20:26:09.458Z,8.93
2022-11-05T20:28:36.235Z,8.90
2022-11-05T20:31:09.908Z,8.91
2022-11-05T20:33:36.959Z,8.91
2022-11-05T20:36:10.974Z,8.84
2022-11-05T20:38:37.501Z,8.92
2022-11-05T20:41:07.947Z,8.96
2022-11-05T20:43:34.345Z,8.92
2022-11-05T20:46:00.882Z,9.00
2022-11-05T20:48:30.518Z,8.99
2022-11-05T20:50:56.943Z,8.95
2022-11-05T20:53:23.355Z,8.91
2022-11-05T20:55:49.745Z,8.86
2022-11-05T20:58:16.599Z,8.89
2022-11-05T21:00:51.197Z,8.92
2022-11-05T21:03:18.115Z,8.88
2022-11-05T21:05:46.180Z,8.83
2022-11-05T21:08:12.740Z,8.77
2022-11-05T21:10:39.505Z,8.75
2022-11-05T21:13:05.925Z,8.74
2022-11-05T21:15:32.398Z,8.72
2022-11-05T21:18:02.228Z,8.74
2022-11-05T21:20:29.617Z,8.75
2022-11-05T21:22:56.063Z,8.75
2022-11-05T21:25:22.474Z,8.75
2022-11-05T21:27:48.850Z,8.78
2022-11-05T21:30:15.329Z,8.76
2022-11-05T21:32:41.796Z,8.75
2022-11-05T21:35:08.528Z,8.78
2022-11-05T21:37:35.262Z,8.85
2022-11-05T21:40:03.363Z,8.84
2022-11-05T21:42:29.825Z,8.84
2022-11-05T21:45:00.201Z,8.81
2022-11-05T21:47:28.404Z,8.77
2022-11-05T21:49:57.874Z,8.75
2022-11-05T21:52:24.315Z,8.78
2022-11-05T21:54:50.774Z,8.85
2022-11-05T21:57:17.244Z,8.80
2022-11-05T21:59:44.088Z,8.88
2022-11-05T22:02:12.056Z,8.85
2022-11-05T22:04:42.407Z,8.82
2022-11-05T22:07:09.826Z,8.87
2022-11-05T22:09:36.323Z,8.85
2022-11-05T22:12:02.974Z,8.85
2022-11-05T22:14:29.392Z,8.83
2022-11-05T22:16:55.930Z,8.82
2022-11-05T22:19:22.622Z,8.78
2022-11-05T22:21:49.158Z,8.74
2022-11-05T22:24:15.679Z,8.70
2022-11-05T22:26:42.235Z,8.67
2022-11-05T22:29:08.709Z,8.69
2022-11-05T22:31:36.666Z,8.70
2022-11-05T22:34:04.101Z,8.71
2022-11-05T22:36:30.483Z,8.72
2022-11-05T22:38:56.894Z,8.74
2022-11-05T22:41:23.395Z,8.69
2022-11-05T22:43:49.809Z,8.70
2022-11-05T22:46:21.220Z,8.69
2022-11-05T22:48:47.885Z,8.75
2022-11-05T22:51:19.035Z,8.77
2022-11-05T22:53:50.122Z,8.80
2022-11-05T22:56:18.225Z,8.79
2022-11-05T22:58:44.598Z,8.78
2022-11-05T23:01:11.621Z,8.81
2022-11-05T23:03:38.652Z,8.81
2022-11-05T23:06:07.123Z,8.78
2022-11-05T23:08:33.550Z,8.83
2022-11-05T23:10:59.936Z,8.83
2022-11-05T23:13:26.371Z,8.79
2022-11-05T23:15:52.824Z,8.74
2022-11-05T23:18:19.225Z,8.71
2022-11-05T23:20:45.607Z,8.69
2022-11-05T23:23:12.136Z,8.69
2022-11-05T23:25:38.510Z,8.62
2022-11-05T23:28:06.921Z,8.71
2022-11-05T23:30:33.381Z,8.70
2022-11-05T23:32:59.767Z,8.73
2022-11-05T23:35:26.177Z,8.76
2022-11-05T23:37:52.581Z,8.79
2022-11-05T23:40:26.834Z,8.71
2022-11-05T23:42:53.308Z,8.83
2022-11-05T23:45:19.889Z,8.84
2022-11-05T23:47:46.302Z,8.84
2022-11-05T23:50:12.729Z,8.84
2022-11-05T23:52:39.117Z,8.88
2022-11-05T23:55:05.629Z,8.89
2022-11-05T23:57:32.034Z,8.89
2022-11-05T23:59:58.423Z,8.90
